createdAt,value
2023-04-27T00:00:30.375Z,73.19
2023-04-27T00:01:30.356Z,73.30
2023-04-27T00:02:30.418Z,73.09
2023-04-27T00:03:30.637Z,73.09
2023-04-27T00:04:30.581Z,73.30
2023-04-27T00:05:30.457Z,73.09
2023-04-27T00:06:30.291Z,73.19
2023-04-27T00:07:30.261Z,73.30
2023-04-27T00:08:30.358Z,73.19
2023-04-27T00:09:30.261Z,73.30
2023-04-27T00:10:30.224Z,73.09
2023-04-27T00:11:30.217Z,73.40
2023-04-27T00:12:30.205Z,73.30
2023-04-27T00:13:30.186Z,73.30
2023-04-27T00:14:30.175Z,73.30
2023-04-27T00:15:30.184Z,73.30
2023-04-27T00:16:30.160Z,73.40
2023-04-27T00:17:30.212Z,73.40
2023-04-27T00:18:30.133Z,73.50
2023-04-27T00:19:30.133Z,73.60
2023-04-27T00:20:30.101Z,73.30
2023-04-27T00:21:30.075Z,73.19
2023-04-27T00:22:30.082Z,72.99
2023-04-27T00:23:30.092Z,72.99
2023-04-27T00:24:30.054Z,73.19
2023-04-27T00:25:30.053Z,72.99
2023-04-27T00:26:30.013Z,73.09
2023-04-27T00:27:30.014Z,73.09
2023-04-27T00:28:29.984Z,73.30
2023-04-27T00:29:29.990Z,73.09
2023-04-27T00:30:29.978Z,73.19
2023-04-27T00:31:30.062Z,73.19
2023-04-27T00:32:29.958Z,73.19
2023-04-27T00:33:29.915Z,73.30
2023-04-27T00:34:29.904Z,72.88
2023-04-27T00:35:29.900Z,72.99
2023-04-27T00:36:29.903Z,72.99
2023-04-27T00:37:29.883Z,72.99
2023-04-27T00:38:29.853Z,72.99
2023-04-27T00:39:29.874Z,72.78
2023-04-27T00:40:29.823Z,72.58
2023-04-27T00:41:29.815Z,72.58
2023-04-27T00:42:29.835Z,72.88
2023-04-27T00:43:29.805Z,72.67
2023-04-27T00:44:29.774Z,72.67
2023-04-27T00:45:29.768Z,72.37
2023-04-27T00:46:29.807Z,72.37
2023-04-27T00:47:29.811Z,72.27
2023-04-27T00:48:29.722Z,71.55
2023-04-27T00:49:29.757Z,71.64
2023-04-27T00:50:29.715Z,71.85
2023-04-27T00:51:29.700Z,71.85
2023-04-27T00:52:29.670Z,72.06
2023-04-27T00:53:29.687Z,72.06
2023-04-27T00:54:29.661Z,72.06
2023-04-27T00:55:29.660Z,72.06
2023-04-27T00:56:29.637Z,72.27
2023-04-27T00:57:29.620Z,72.37
2023-04-27T00:58:29.604Z,72.47
2023-04-27T00:59:29.598Z,72.37
2023-04-27T01:00:29.600Z,72.27
2023-04-27T01:01:29.607Z,72.61
2023-04-27T01:02:29.700Z,72.58
2023-04-27T01:03:29.656Z,72.50
2023-04-27T01:04:29.691Z,72.30
2023-04-27T01:05:31.312Z,72.50
2023-04-27T01:06:29.488Z,72.19
2023-04-27T01:07:29.496Z,71.89
2023-04-27T01:08:29.487Z,72.09
2023-04-27T01:09:29.500Z,72.30
2023-04-27T01:10:29.436Z,72.40
2023-04-27T01:11:29.444Z,72.61
2023-04-27T01:12:29.411Z,72.71
2023-04-27T01:13:29.413Z,72.71
2023-04-27T01:14:29.389Z,72.61
2023-04-27T01:15:29.384Z,72.40
2023-04-27T01:16:29.449Z,72.19
2023-04-27T01:17:29.364Z,72.30
2023-04-27T01:18:29.331Z,71.78
2023-04-27T01:19:29.335Z,72.19
2023-04-27T01:20:29.337Z,71.78
2023-04-27T01:21:29.311Z,71.78
2023-04-27T01:22:29.306Z,71.68
2023-04-27T01:23:29.287Z,71.78
2023-04-27T01:24:29.268Z,72.19
2023-04-27T01:25:29.262Z,71.89
2023-04-27T01:26:29.232Z,71.78
2023-04-27T01:27:29.240Z,71.78
2023-04-27T01:28:29.220Z,71.89
2023-04-27T01:29:29.226Z,72.09
2023-04-27T01:30:29.187Z,72.19
2023-04-27T01:31:29.229Z,72.30
2023-04-27T01:32:29.222Z,72.30
2023-04-27T01:33:29.183Z,72.30
2023-04-27T01:34:29.142Z,72.40
2023-04-27T01:35:29.127Z,72.30
2023-04-27T01:36:29.118Z,72.40
2023-04-27T01:37:29.096Z,72.50
2023-04-27T01:38:29.093Z,72.71
2023-04-27T01:39:29.084Z,72.71
2023-04-27T01:40:29.053Z,72.50
2023-04-27T01:41:29.039Z,72.61
2023-04-27T01:42:29.058Z,72.61
2023-04-27T01:43:29.016Z,72.74
2023-04-27T01:44:28.998Z,72.61
2023-04-27T01:45:28.983Z,72.71
2023-04-27T01:46:29.019Z,72.92
2023-04-27T01:47:29.032Z,72.95
2023-04-27T01:48:28.959Z,73.05
2023-04-27T01:49:28.956Z,73.16
2023-04-27T01:50:28.926Z,73.16
2023-04-27T01:51:28.921Z,73.05
2023-04-27T01:52:28.913Z,73.16
2023-04-27T01:53:28.923Z,73.36
2023-04-27T01:54:28.922Z,73.16
2023-04-27T01:55:28.885Z,73.26
2023-04-27T01:56:28.857Z,73.57
2023-04-27T01:57:28.857Z,73.26
2023-04-27T01:58:28.813Z,73.26
2023-04-27T01:59:28.827Z,73.36
2023-04-27T02:00:28.816Z,73.47
2023-04-27T02:01:28.854Z,73.77
2023-04-27T02:02:28.878Z,73.57
2023-04-27T02:03:28.853Z,73.68
2023-04-27T02:04:28.804Z,73.57
2023-04-27T02:05:28.746Z,73.57
2023-04-27T02:06:28.759Z,73.68
2023-04-27T02:07:28.734Z,73.47
2023-04-27T02:08:28.722Z,73.05
2023-04-27T02:09:28.678Z,73.05
2023-04-27T02:10:28.691Z,72.95
2023-04-27T02:11:28.662Z,72.85
2023-04-27T02:12:28.662Z,72.74
2023-04-27T02:13:28.644Z,72.99
2023-04-27T02:14:28.643Z,73.09
2023-04-27T02:15:28.619Z,72.99
2023-04-27T02:16:28.622Z,73.50
2023-04-27T02:17:28.609Z,72.99
2023-04-27T02:18:28.582Z,73.19
2023-04-27T02:19:28.558Z,73.09
2023-04-27T02:20:28.559Z,72.99
2023-04-27T02:21:28.520Z,73.19
2023-04-27T02:22:28.524Z,73.19
2023-04-27T02:23:28.512Z,73.29
2023-04-27T02:24:28.491Z,73.50
2023-04-27T02:25:28.489Z,73.50
2023-04-27T02:26:28.454Z,73.60
2023-04-27T02:27:28.478Z,73.60
2023-04-27T02:28:28.447Z,73.81
2023-04-27T02:29:28.431Z,74.02
2023-04-27T02:30:28.408Z,73.91
2023-04-27T02:31:28.470Z,73.91
2023-04-27T02:32:28.428Z,74.12
2023-04-27T02:33:28.369Z,74.22
2023-04-27T02:34:28.359Z,74.33
2023-04-27T02:35:28.377Z,74.22
2023-04-27T02:36:28.344Z,74.22
2023-04-27T02:37:28.324Z,74.63
2023-04-27T02:38:28.323Z,74.63
2023-04-27T02:39:28.292Z,74.74
2023-04-27T02:40:28.317Z,74.74
2023-04-27T02:41:28.273Z,74.95
2023-04-27T02:42:28.262Z,74.98
2023-04-27T02:43:28.243Z,75.19
2023-04-27T02:44:28.246Z,75.57
2023-04-27T02:45:28.224Z,75.26
2023-04-27T02:46:28.305Z,75.39
2023-04-27T02:47:28.214Z,75.49
2023-04-27T02:48:28.187Z,75.46
2023-04-27T02:49:28.165Z,75.46
2023-04-27T02:50:28.163Z,75.26
2023-04-27T02:51:28.131Z,75.19
2023-04-27T02:52:28.125Z,75.29
2023-04-27T02:53:28.128Z,75.39
2023-04-27T02:54:28.112Z,75.49
2023-04-27T02:55:28.073Z,75.60
2023-04-27T02:56:28.098Z,75.81
2023-04-27T02:57:28.087Z,75.81
2023-04-27T02:58:28.065Z,75.91
2023-04-27T02:59:28.020Z,76.01
2023-04-27T03:00:28.033Z,75.60
2023-04-27T03:01:28.141Z,75.91
2023-04-27T03:02:40.490Z,75.81
2023-04-27T03:03:28.094Z,76.43
2023-04-27T03:04:28.269Z,76.64
2023-04-27T03:05:27.968Z,76.60
2023-04-27T03:06:27.967Z,76.18
2023-04-27T03:07:27.942Z,76.32
2023-04-27T03:08:27.981Z,76.32
2023-04-27T03:09:27.918Z,76.64
2023-04-27T03:10:27.895Z,76.32
2023-04-27T03:11:27.889Z,76.53
2023-04-27T03:12:27.922Z,76.43
2023-04-27T03:13:27.884Z,76.53
2023-04-27T03:14:27.873Z,77.01
2023-04-27T03:15:34.936Z,76.53
2023-04-27T03:16:27.865Z,75.60
2023-04-27T03:17:27.813Z,75.81
2023-04-27T03:18:27.790Z,75.91
2023-04-27T03:19:27.766Z,76.01
2023-04-27T03:20:27.769Z,75.91
2023-04-27T03:21:27.748Z,76.22
2023-04-27T03:22:27.741Z,76.32
2023-04-27T03:23:27.724Z,76.01
2023-04-27T03:24:27.727Z,76.22
2023-04-27T03:25:27.826Z,76.22
2023-04-27T03:26:27.701Z,75.91
2023-04-27T03:27:27.671Z,75.91
2023-04-27T03:28:27.671Z,76.01
2023-04-27T03:29:27.669Z,75.81
2023-04-27T03:30:27.637Z,75.81
2023-04-27T03:31:27.653Z,75.70
2023-04-27T03:32:27.651Z,75.81
2023-04-27T03:33:27.584Z,75.91
2023-04-27T03:34:27.581Z,75.91
2023-04-27T03:35:27.588Z,76.12
2023-04-27T03:36:27.549Z,76.12
2023-04-27T03:37:27.544Z,76.12
2023-04-27T03:38:27.536Z,75.91
2023-04-27T03:39:27.525Z,75.91
2023-04-27T03:40:27.494Z,76.12
2023-04-27T03:41:27.501Z,76.01
2023-04-27T03:42:27.483Z,76.12
2023-04-27T03:43:27.450Z,75.91
2023-04-27T03:44:27.456Z,76.12
2023-04-27T03:45:27.449Z,76.12
2023-04-27T03:46:27.603Z,75.91
2023-04-27T03:47:27.431Z,75.91
2023-04-27T03:48:27.402Z,75.81
2023-04-27T03:49:27.371Z,75.39
2023-04-27T03:50:28.904Z,75.60
2023-04-27T03:51:27.378Z,75.49
2023-04-27T03:52:27.349Z,75.49
2023-04-27T03:53:27.332Z,75.29
2023-04-27T03:54:27.314Z,75.29
2023-04-27T03:55:27.293Z,75.29
2023-04-27T03:56:27.306Z,75.09
2023-04-27T03:57:27.290Z,75.29
2023-04-27T03:58:27.262Z,75.49
2023-04-27T03:59:27.253Z,75.39
2023-04-27T04:00:27.232Z,75.19
2023-04-27T04:01:27.237Z,75.29
2023-04-27T04:02:27.385Z,75.19
2023-04-27T04:03:27.427Z,75.19
2023-04-27T04:04:27.416Z,75.19
2023-04-27T04:05:27.181Z,75.19
2023-04-27T04:06:27.181Z,74.98
2023-04-27T04:07:27.153Z,75.19
2023-04-27T04:08:27.127Z,75.09
2023-04-27T04:09:27.167Z,74.98
2023-04-27T04:10:27.117Z,74.98
2023-04-27T04:11:27.091Z,74.98
2023-04-27T04:12:27.078Z,74.98
2023-04-27T04:13:27.096Z,74.98
2023-04-27T04:14:27.078Z,74.67
2023-04-27T04:15:27.061Z,74.36
2023-04-27T04:16:27.098Z,74.67
2023-04-27T04:17:27.070Z,74.88
2023-04-27T04:18:27.003Z,74.57
2023-04-27T04:19:26.997Z,74.77
2023-04-27T04:20:26.988Z,74.88
2023-04-27T04:21:26.980Z,74.98
2023-04-27T04:22:26.966Z,74.88
2023-04-27T04:23:26.953Z,74.67
2023-04-27T04:24:26.949Z,74.15
2023-04-27T04:25:26.926Z,74.46
2023-04-27T04:26:26.944Z,74.57
2023-04-27T04:27:26.881Z,74.77
2023-04-27T04:28:26.895Z,74.77
2023-04-27T04:29:26.858Z,75.09
2023-04-27T04:30:26.864Z,74.88
2023-04-27T04:31:26.912Z,74.88
2023-04-27T04:32:26.870Z,74.77
2023-04-27T04:33:26.804Z,74.67
2023-04-27T04:34:26.806Z,74.67
2023-04-27T04:35:26.811Z,74.77
2023-04-27T04:36:26.779Z,74.98
2023-04-27T04:37:26.776Z,74.57
2023-04-27T04:38:26.804Z,74.67
2023-04-27T04:39:26.743Z,74.67
2023-04-27T04:40:26.753Z,75.09
2023-04-27T04:41:26.811Z,74.88
2023-04-27T04:42:26.715Z,74.77
2023-04-27T04:43:26.688Z,74.88
2023-04-27T04:44:26.699Z,75.09
2023-04-27T04:45:26.663Z,74.77
2023-04-27T04:46:26.694Z,74.88
2023-04-27T04:47:26.738Z,74.95
2023-04-27T04:48:26.642Z,74.53
2023-04-27T04:49:26.611Z,74.84
2023-04-27T04:50:26.601Z,74.63
2023-04-27T04:51:26.595Z,74.33
2023-04-27T04:52:26.596Z,74.53
2023-04-27T04:53:26.569Z,74.33
2023-04-27T04:54:26.563Z,74.02
2023-04-27T04:55:26.560Z,73.91
2023-04-27T04:56:26.534Z,74.12
2023-04-27T04:57:26.497Z,73.91
2023-04-27T04:58:26.498Z,74.02
2023-04-27T04:59:26.487Z,73.91
2023-04-27T05:00:26.479Z,73.77
2023-04-27T05:01:26.475Z,73.88
2023-04-27T05:02:26.556Z,74.50
2023-04-27T05:03:26.581Z,74.08
2023-04-27T05:04:26.584Z,74.29
2023-04-27T05:05:26.419Z,73.47
2023-04-27T05:06:26.402Z,73.77
2023-04-27T05:07:26.392Z,73.77
2023-04-27T05:08:26.371Z,73.77
2023-04-27T05:09:26.338Z,73.88
2023-04-27T05:10:26.320Z,73.36
2023-04-27T05:11:26.318Z,73.22
2023-04-27T05:12:26.341Z,72.74
2023-04-27T05:13:26.300Z,72.92
2023-04-27T05:14:26.337Z,72.95
2023-04-27T05:15:26.283Z,72.74
2023-04-27T05:16:26.279Z,73.26
2023-04-27T05:17:26.269Z,72.74
2023-04-27T05:18:26.250Z,72.64
2023-04-27T05:19:26.221Z,72.64
2023-04-27T05:20:26.205Z,72.85
2023-04-27T05:21:26.210Z,73.36
2023-04-27T05:22:26.275Z,72.95
2023-04-27T05:23:26.170Z,72.61
2023-04-27T05:24:26.153Z,72.44
2023-04-27T05:25:26.137Z,72.44
2023-04-27T05:26:26.131Z,72.85
2023-04-27T05:27:26.133Z,72.64
2023-04-27T05:28:26.118Z,72.44
2023-04-27T05:29:26.073Z,72.64
2023-04-27T05:30:26.082Z,72.85
2023-04-27T05:31:26.087Z,72.74
2023-04-27T05:32:26.074Z,72.95
2023-04-27T05:33:26.030Z,73.12
2023-04-27T05:34:26.030Z,73.02
2023-04-27T05:35:26.000Z,72.40
2023-04-27T05:36:26.017Z,72.74
2023-04-27T05:37:25.999Z,72.85
2023-04-27T05:38:25.961Z,73.02
2023-04-27T05:39:25.988Z,72.92
2023-04-27T05:40:25.957Z,72.81
2023-04-27T05:41:25.939Z,72.92
2023-04-27T05:42:25.923Z,72.92
2023-04-27T05:43:25.910Z,72.78
2023-04-27T05:44:25.886Z,72.47
2023-04-27T05:45:25.867Z,72.37
2023-04-27T05:46:25.905Z,72.06
2023-04-27T05:47:25.859Z,72.16
2023-04-27T05:48:25.865Z,72.16
2023-04-27T05:49:25.836Z,72.27
2023-04-27T05:50:25.837Z,72.06
2023-04-27T05:51:25.828Z,72.16
2023-04-27T05:52:25.794Z,72.19
2023-04-27T05:53:25.770Z,72.50
2023-04-27T05:54:25.776Z,72.50
2023-04-27T05:55:25.756Z,72.61
2023-04-27T05:56:25.726Z,72.88
2023-04-27T05:57:25.716Z,72.58
2023-04-27T05:58:25.719Z,71.95
2023-04-27T05:59:25.697Z,72.58
2023-04-27T06:00:25.691Z,72.13
2023-04-27T06:01:25.671Z,71.85
2023-04-27T06:02:25.814Z,71.85
2023-04-27T06:03:25.852Z,71.95
2023-04-27T06:04:25.791Z,71.92
2023-04-27T06:05:25.698Z,71.72
2023-04-27T06:06:25.616Z,71.82
2023-04-27T06:07:25.599Z,71.82
2023-04-27T06:08:25.577Z,71.61
2023-04-27T06:09:25.585Z,71.92
2023-04-27T06:10:25.561Z,71.92
2023-04-27T06:11:25.536Z,71.10
2023-04-27T06:12:25.548Z,71.37
2023-04-27T06:13:25.542Z,71.06
2023-04-27T06:14:25.500Z,70.58
2023-04-27T06:15:25.514Z,70.89
2023-04-27T06:16:25.521Z,70.76
2023-04-27T06:17:25.474Z,70.65
2023-04-27T06:18:25.512Z,70.48
2023-04-27T06:19:25.455Z,70.79
2023-04-27T06:20:25.434Z,71.06
2023-04-27T06:21:25.438Z,70.96
2023-04-27T06:22:25.407Z,70.34
2023-04-27T06:23:25.399Z,70.55
2023-04-27T06:24:25.398Z,70.55
2023-04-27T06:25:27.306Z,70.24
2023-04-27T06:26:25.371Z,70.34
2023-04-27T06:27:25.351Z,70.45
2023-04-27T06:28:25.316Z,70.48
2023-04-27T06:29:25.322Z,69.96
2023-04-27T06:30:25.307Z,69.96
2023-04-27T06:31:25.302Z,70.24
2023-04-27T06:32:25.310Z,70.04
2023-04-27T06:33:25.273Z,69.70
2023-04-27T06:34:25.237Z,69.18
2023-04-27T06:35:25.224Z,69.18
2023-04-27T06:36:25.206Z,69.25
2023-04-27T06:37:25.213Z,68.84
2023-04-27T06:38:25.196Z,68.74
2023-04-27T06:39:25.189Z,68.70
2023-04-27T06:40:25.183Z,67.78
2023-04-27T06:41:25.268Z,67.68
2023-04-27T06:42:25.155Z,67.78
2023-04-27T06:43:25.151Z,67.81
2023-04-27T06:44:25.107Z,67.60
2023-04-27T06:45:25.092Z,66.88
2023-04-27T06:46:25.106Z,67.71
2023-04-27T06:47:25.066Z,68.12
2023-04-27T06:48:25.088Z,67.78
2023-04-27T06:49:25.050Z,66.37
2023-04-27T06:50:25.050Z,66.16
2023-04-27T06:51:25.072Z,66.16
2023-04-27T06:52:25.002Z,66.06
2023-04-27T06:53:25.010Z,66.09
2023-04-27T06:54:24.983Z,66.06
2023-04-27T06:55:24.983Z,65.23
2023-04-27T06:56:24.955Z,65.23
2023-04-27T06:57:24.992Z,65.13
2023-04-27T06:58:24.912Z,64.31
2023-04-27T06:59:24.977Z,64.21
2023-04-27T07:00:24.901Z,64.75
2023-04-27T07:01:24.925Z,65.68
2023-04-27T07:02:25.708Z,65.58
2023-04-27T07:03:24.961Z,65.47
2023-04-27T07:04:24.987Z,65.68
2023-04-27T07:05:24.834Z,65.47
2023-04-27T07:06:24.827Z,65.58
2023-04-27T07:07:24.812Z,65.58
2023-04-27T07:08:24.978Z,64.44
2023-04-27T07:09:27.732Z,64.65
2023-04-27T07:10:24.782Z,64.83
2023-04-27T07:11:24.796Z,64.72
2023-04-27T07:12:24.752Z,65.23
2023-04-27T07:13:24.750Z,64.83
2023-04-27T07:14:24.724Z,64.41
2023-04-27T07:15:24.720Z,64.41
2023-04-27T07:16:24.710Z,64.69
2023-04-27T07:17:24.739Z,64.62
2023-04-27T07:18:24.670Z,63.46
2023-04-27T07:19:24.654Z,62.95
2023-04-27T07:20:26.679Z,62.66
2023-04-27T07:21:24.626Z,63.07
2023-04-27T07:22:24.619Z,63.28
2023-04-27T07:23:24.610Z,62.97
2023-04-27T07:24:24.582Z,63.28
2023-04-27T07:25:24.612Z,63.07
2023-04-27T07:26:24.558Z,63.28
2023-04-27T07:27:24.577Z,63.90
2023-04-27T07:28:24.534Z,63.49
2023-04-27T07:29:27.354Z,63.79
2023-04-27T07:30:24.509Z,64.21
2023-04-27T07:31:24.558Z,63.90
2023-04-27T07:32:24.527Z,64.59
2023-04-27T07:33:24.457Z,63.76
2023-04-27T07:34:24.487Z,63.87
2023-04-27T07:35:24.505Z,63.76
2023-04-27T07:36:24.438Z,63.76
2023-04-27T07:37:24.418Z,63.25
2023-04-27T07:38:24.400Z,63.25
2023-04-27T07:39:24.419Z,62.30
2023-04-27T07:40:24.402Z,62.51
2023-04-27T07:41:24.380Z,62.51
2023-04-27T07:42:24.347Z,62.16
2023-04-27T07:43:24.352Z,62.06
2023-04-27T07:44:24.308Z,62.58
2023-04-27T07:45:24.384Z,62.24
2023-04-27T07:46:24.354Z,61.83
2023-04-27T07:47:24.315Z,60.70
2023-04-27T07:48:24.321Z,60.70
2023-04-27T07:49:24.253Z,61.21
2023-04-27T07:50:24.340Z,61.00
2023-04-27T07:51:24.276Z,60.60
2023-04-27T07:52:24.227Z,60.42
2023-04-27T07:53:24.197Z,60.73
2023-04-27T07:54:24.188Z,61.07
2023-04-27T07:55:24.197Z,61.47
2023-04-27T07:56:24.238Z,61.58
2023-04-27T07:57:24.157Z,61.65
2023-04-27T07:58:24.131Z,61.24
2023-04-27T07:59:24.123Z,60.91
2023-04-27T08:00:24.158Z,60.60
2023-04-27T08:01:24.106Z,60.49
2023-04-27T08:02:24.221Z,59.85
2023-04-27T08:03:24.256Z,59.95
2023-04-27T08:04:24.386Z,59.52
2023-04-27T08:05:24.601Z,59.00
2023-04-27T08:06:24.758Z,59.23
2023-04-27T08:07:24.231Z,59.72
2023-04-27T08:08:24.005Z,59.72
2023-04-27T08:09:24.024Z,59.59
2023-04-27T08:10:24.032Z,57.75
2023-04-27T08:11:23.987Z,57.46
2023-04-27T08:12:23.962Z,57.77
2023-04-27T08:13:25.489Z,57.87
2023-04-27T08:14:23.961Z,58.07
2023-04-27T08:15:23.947Z,58.69
2023-04-27T08:16:23.933Z,58.80
2023-04-27T08:17:23.909Z,58.56
2023-04-27T08:18:23.871Z,57.98
2023-04-27T08:19:23.874Z,57.90
2023-04-27T08:20:23.880Z,58.41
2023-04-27T08:21:23.836Z,58.51
2023-04-27T08:22:23.840Z,58.34
2023-04-27T08:23:23.824Z,58.83
2023-04-27T08:24:23.810Z,58.21
2023-04-27T08:25:23.777Z,58.51
2023-04-27T08:26:25.743Z,58.21
2023-04-27T08:27:23.775Z,57.90
2023-04-27T08:28:23.737Z,58.31
2023-04-27T08:29:27.775Z,57.70
2023-04-27T08:30:23.784Z,58.31
2023-04-27T08:31:23.750Z,58.44
2023-04-27T08:32:23.736Z,58.03
2023-04-27T08:33:23.715Z,57.62
2023-04-27T08:34:23.681Z,57.31
2023-04-27T08:35:23.676Z,57.82
2023-04-27T08:36:23.657Z,56.79
2023-04-27T08:37:23.644Z,56.59
2023-04-27T08:38:25.594Z,56.79
2023-04-27T08:39:23.612Z,57.08
2023-04-27T08:40:23.668Z,56.56
2023-04-27T08:41:23.600Z,56.26
2023-04-27T08:42:23.575Z,56.56
2023-04-27T08:43:23.552Z,56.56
2023-04-27T08:44:23.536Z,56.46
2023-04-27T08:45:23.564Z,56.56
2023-04-27T08:46:23.549Z,56.64
2023-04-27T08:47:34.732Z,56.41
2023-04-27T08:48:24.540Z,55.79
2023-04-27T08:49:23.511Z,55.26
2023-04-27T08:50:23.523Z,54.13
2023-04-27T08:51:23.459Z,54.15
2023-04-27T08:52:23.472Z,54.36
2023-04-27T08:53:23.433Z,54.95
2023-04-27T08:54:23.415Z,54.15
2023-04-27T08:55:23.412Z,54.66
2023-04-27T08:56:23.429Z,55.18
2023-04-27T08:57:23.381Z,55.26
2023-04-27T08:58:23.369Z,55.05
2023-04-27T08:59:23.353Z,54.95
2023-04-27T09:00:23.325Z,54.95
2023-04-27T09:01:23.337Z,54.33
2023-04-27T09:02:23.349Z,54.79
2023-04-27T09:03:23.464Z,55.69
2023-04-27T09:04:23.438Z,55.69
2023-04-27T09:05:23.345Z,56.00
2023-04-27T09:06:23.410Z,55.49
2023-04-27T09:07:23.240Z,55.62
2023-04-27T09:08:23.221Z,55.92
2023-04-27T09:09:23.210Z,56.43
2023-04-27T09:10:23.214Z,56.92
2023-04-27T09:11:23.204Z,56.34
2023-04-27T09:12:23.200Z,56.54
2023-04-27T09:13:23.188Z,57.26
2023-04-27T09:14:23.177Z,57.36
2023-04-27T09:15:23.145Z,57.54
2023-04-27T09:16:30.322Z,57.43
2023-04-27T09:17:23.140Z,57.61
2023-04-27T09:18:23.114Z,56.49
2023-04-27T09:19:23.125Z,55.77
2023-04-27T09:20:23.135Z,55.36
2023-04-27T09:21:23.095Z,55.46
2023-04-27T09:22:23.055Z,55.36
2023-04-27T09:23:23.061Z,54.33
2023-04-27T09:24:23.015Z,54.87
2023-04-27T09:25:23.013Z,54.66
2023-04-27T09:26:23.040Z,54.85
2023-04-27T09:27:22.998Z,54.74
2023-04-27T09:28:23.014Z,55.02
2023-04-27T09:29:22.957Z,55.30
2023-04-27T09:30:23.003Z,54.90
2023-04-27T09:31:22.974Z,54.28
2023-04-27T09:32:22.977Z,54.82
2023-04-27T09:33:22.912Z,54.72
2023-04-27T09:34:22.875Z,55.23
2023-04-27T09:35:22.898Z,55.02
2023-04-27T09:36:22.870Z,55.02
2023-04-27T09:37:22.840Z,54.31
2023-04-27T09:38:22.824Z,54.64
2023-04-27T09:39:22.824Z,54.23
2023-04-27T09:40:22.878Z,54.44
2023-04-27T09:41:22.836Z,53.85
2023-04-27T09:42:22.935Z,54.25
2023-04-27T09:43:22.758Z,54.33
2023-04-27T09:44:22.751Z,54.44
2023-04-27T09:45:22.732Z,55.15
2023-04-27T09:46:22.829Z,55.54
2023-04-27T09:47:22.738Z,54.92
2023-04-27T09:48:22.704Z,55.23
2023-04-27T09:49:22.705Z,55.02
2023-04-27T09:50:22.697Z,54.61
2023-04-27T09:51:22.681Z,54.90
2023-04-27T09:52:22.650Z,54.82
2023-04-27T09:53:22.645Z,54.10
2023-04-27T09:54:22.623Z,53.92
2023-04-27T09:55:22.642Z,53.72
2023-04-27T09:56:22.618Z,53.72
2023-04-27T09:57:22.589Z,54.33
2023-04-27T09:58:22.597Z,54.74
2023-04-27T09:59:22.587Z,54.95
2023-04-27T10:00:22.627Z,55.26
2023-04-27T10:01:22.576Z,55.13
2023-04-27T10:02:24.724Z,55.33
2023-04-27T10:03:22.603Z,54.82
2023-04-27T10:04:22.797Z,55.23
2023-04-27T10:05:22.515Z,55.43
2023-04-27T10:06:22.466Z,55.30
2023-04-27T10:07:22.458Z,55.10
2023-04-27T10:08:22.438Z,54.08
2023-04-27T10:09:22.459Z,54.38
2023-04-27T10:10:22.415Z,53.16
2023-04-27T10:11:22.407Z,53.87
2023-04-27T10:12:22.421Z,53.49
2023-04-27T10:13:22.385Z,53.69
2023-04-27T10:14:22.374Z,54.31
2023-04-27T10:15:22.357Z,54.53
2023-04-27T10:16:22.414Z,54.64
2023-04-27T10:17:22.347Z,55.36
2023-04-27T10:18:22.331Z,55.36
2023-04-27T10:19:22.316Z,55.02
2023-04-27T10:20:22.303Z,54.72
2023-04-27T10:21:22.292Z,54.92
2023-04-27T10:22:23.855Z,54.69
2023-04-27T10:23:22.264Z,53.67
2023-04-27T10:24:22.231Z,52.85
2023-04-27T10:25:22.284Z,53.13
2023-04-27T10:26:22.231Z,52.51
2023-04-27T10:27:22.193Z,52.23
2023-04-27T10:28:22.199Z,53.03
2023-04-27T10:29:22.183Z,53.13
2023-04-27T10:30:22.176Z,53.13
2023-04-27T10:31:22.234Z,53.31
2023-04-27T10:32:22.157Z,52.26
2023-04-27T10:33:22.149Z,52.37
2023-04-27T10:34:22.127Z,52.59
2023-04-27T10:35:22.129Z,52.80
2023-04-27T10:36:22.105Z,53.59
2023-04-27T10:37:22.058Z,52.16
2023-04-27T10:38:22.043Z,52.06
2023-04-27T10:39:25.610Z,52.16
2023-04-27T10:40:23.047Z,51.86
2023-04-27T10:41:22.029Z,51.34
2023-04-27T10:42:22.022Z,52.06
2023-04-27T10:43:22.102Z,52.31
2023-04-27T10:44:21.988Z,52.42
2023-04-27T10:45:21.952Z,52.03
2023-04-27T10:46:21.999Z,51.82
2023-04-27T10:47:21.935Z,52.36
2023-04-27T10:48:21.919Z,52.97
2023-04-27T10:49:21.924Z,53.26
2023-04-27T10:50:21.898Z,54.18
2023-04-27T10:51:21.913Z,51.90
2023-04-27T10:52:21.913Z,50.78
2023-04-27T10:53:21.886Z,49.85
2023-04-27T10:54:21.884Z,49.63
2023-04-27T10:55:21.836Z,49.32
2023-04-27T10:56:21.846Z,49.01
2023-04-27T10:57:21.824Z,49.11
2023-04-27T10:58:21.805Z,49.04
2023-04-27T10:59:21.773Z,49.55
2023-04-27T11:00:21.785Z,49.32
2023-04-27T11:01:21.770Z,49.22
2023-04-27T11:02:21.781Z,49.60
2023-04-27T11:03:21.816Z,48.60
2023-04-27T11:04:21.775Z,49.11
2023-04-27T11:05:21.714Z,49.63
2023-04-27T11:06:21.689Z,49.40
2023-04-27T11:07:21.687Z,49.07
2023-04-27T11:08:21.732Z,49.27
2023-04-27T11:09:21.673Z,49.17
2023-04-27T11:10:21.652Z,49.58
2023-04-27T11:11:21.617Z,48.86
2023-04-27T11:12:21.937Z,48.38
2023-04-27T11:13:21.596Z,48.30
2023-04-27T11:14:21.605Z,48.71
2023-04-27T11:15:21.592Z,48.48
2023-04-27T11:16:21.615Z,48.58
2023-04-27T11:17:21.580Z,47.68
2023-04-27T11:18:21.559Z,47.17
2023-04-27T11:19:21.526Z,48.19
2023-04-27T11:20:21.496Z,46.76
2023-04-27T11:21:21.529Z,47.27
2023-04-27T11:22:21.486Z,47.50
2023-04-27T11:23:21.459Z,47.99
2023-04-27T11:24:21.469Z,47.58
2023-04-27T11:25:21.440Z,47.45
2023-04-27T11:26:21.753Z,47.56
2023-04-27T11:27:21.441Z,47.15
2023-04-27T11:28:21.412Z,46.33
2023-04-27T11:29:21.419Z,46.53
2023-04-27T11:30:21.387Z,46.74
2023-04-27T11:31:21.399Z,47.15
2023-04-27T11:32:21.341Z,47.48
2023-04-27T11:33:21.324Z,48.09
2023-04-27T11:34:22.764Z,48.30
2023-04-27T11:35:21.376Z,48.40
2023-04-27T11:36:21.287Z,48.81
2023-04-27T11:37:21.286Z,48.81
2023-04-27T11:38:21.313Z,49.52
2023-04-27T11:39:21.351Z,49.11
2023-04-27T11:40:23.946Z,48.81
2023-04-27T11:41:21.251Z,49.14
2023-04-27T11:42:21.220Z,49.34
2023-04-27T11:43:21.187Z,48.93
2023-04-27T11:44:21.205Z,49.34
2023-04-27T11:45:21.171Z,49.44
2023-04-27T11:46:21.318Z,50.04
2023-04-27T11:47:21.190Z,48.71
2023-04-27T11:48:21.123Z,48.40
2023-04-27T11:49:21.125Z,49.42
2023-04-27T11:50:21.116Z,49.93
2023-04-27T11:51:21.124Z,50.14
2023-04-27T11:52:21.077Z,50.06
2023-04-27T11:53:21.104Z,50.47
2023-04-27T11:54:21.058Z,50.67
2023-04-27T11:55:21.056Z,49.96
2023-04-27T11:56:21.019Z,47.91
2023-04-27T11:57:21.023Z,47.91
2023-04-27T11:58:21.003Z,47.91
2023-04-27T11:59:21.007Z,48.30
2023-04-27T12:00:20.961Z,48.60
2023-04-27T12:01:27.783Z,49.73
2023-04-27T12:02:22.136Z,50.45
2023-04-27T12:03:21.171Z,49.42
2023-04-27T12:04:21.261Z,48.50
2023-04-27T12:05:21.257Z,47.68
2023-04-27T12:07:20.886Z,48.50
2023-04-27T12:08:20.921Z,48.50
2023-04-27T12:09:20.880Z,48.60
2023-04-27T12:10:20.861Z,48.58
2023-04-27T12:11:20.871Z,48.79
2023-04-27T12:12:20.816Z,48.17
2023-04-27T12:13:20.820Z,47.97
2023-04-27T12:14:20.812Z,48.17
2023-04-27T12:15:20.776Z,47.76
2023-04-27T12:16:20.816Z,47.86
2023-04-27T12:17:20.773Z,47.94
2023-04-27T12:18:20.788Z,47.44
2023-04-27T12:19:20.748Z,48.15
2023-04-27T12:20:20.723Z,48.33
2023-04-27T12:21:20.723Z,47.39
2023-04-27T12:22:20.722Z,46.70
2023-04-27T12:23:20.677Z,47.31
2023-04-27T12:24:20.665Z,46.62
2023-04-27T12:25:20.663Z,46.92
2023-04-27T12:26:20.640Z,47.33
2023-04-27T12:27:20.621Z,47.23
2023-04-27T12:28:20.602Z,47.33
2023-04-27T12:29:20.580Z,46.41
2023-04-27T12:30:20.580Z,46.72
2023-04-27T12:31:20.619Z,47.13
2023-04-27T12:32:20.611Z,46.08
2023-04-27T12:33:20.570Z,45.59
2023-04-27T12:34:20.516Z,45.80
2023-04-27T12:35:20.509Z,44.88
2023-04-27T12:36:20.536Z,44.96
2023-04-27T12:37:20.486Z,44.92
2023-04-27T12:38:20.463Z,44.92
2023-04-27T12:39:20.492Z,44.81
2023-04-27T12:40:20.455Z,44.12
2023-04-27T12:41:20.451Z,44.73
2023-04-27T12:42:20.434Z,44.53
2023-04-27T12:43:20.406Z,43.20
2023-04-27T12:44:20.414Z,43.20
2023-04-27T12:45:20.371Z,43.53
2023-04-27T12:46:20.421Z,43.71
2023-04-27T12:47:40.566Z,44.02
2023-04-27T12:48:21.378Z,44.02
2023-04-27T12:49:20.454Z,44.02
2023-04-27T12:50:20.352Z,44.32
2023-04-27T12:51:20.304Z,44.22
2023-04-27T12:52:20.299Z,44.12
2023-04-27T12:53:20.281Z,44.84